sensor_id;sensor_type;location;lat;lon;timestamp;P1;durP1;ratioP1;P2;durP2;ratioP2
53652;SDS011;39553;52.954;5.932;2023-02-28T00:00:35;7.60;;;3.75;;
53652;SDS011;39553;52.954;5.932;2023-02-28T00:03:02;6.57;;;3.88;;
53652;SDS011;39553;52.954;5.932;2023-02-28T00:05:28;11.75;;;4.18;;
53652;SDS011;39553;52.954;5.932;2023-02-28T00:07:54;7.97;;;4.13;;
53652;SDS011;39553;52.954;5.932;2023-02-28T00:10:22;8.05;;;4.07;;
53652;SDS011;39553;52.954;5.932;2023-02-28T00:12:49;8.45;;;3.85;;
53652;SDS011;39553;52.954;5.932;2023-02-28T00:15:16;16.45;;;4.40;;
53652;SDS011;39553;52.954;5.932;2023-02-28T00:17:42;13.10;;;3.97;;
53652;SDS011;39553;52.954;5.932;2023-02-28T00:20:09;7.63;;;3.55;;
53652;SDS011;39553;52.954;5.932;2023-02-28T00:22:46;8.68;;;3.65;;
53652;SDS011;39553;52.954;5.932;2023-02-28T00:25:16;10.52;;;4.10;;
53652;SDS011;39553;52.954;5.932;2023-02-28T00:27:44;9.00;;;4.10;;
53652;SDS011;39553;52.954;5.932;2023-02-28T00:30:17;13.27;;;4.10;;
53652;SDS011;39553;52.954;5.932;2023-02-28T00:32:44;12.93;;;4.30;;
53652;SDS011;39553;52.954;5.932;2023-02-28T00:35:10;12.25;;;3.95;;
53652;SDS011;39553;52.954;5.932;2023-02-28T00:37:37;9.55;;;4.05;;
53652;SDS011;39553;52.954;5.932;2023-02-28T00:40:03;8.77;;;3.72;;
53652;SDS011;39553;52.954;5.932;2023-02-28T00:42:31;11.25;;;4.40;;
53652;SDS011;39553;52.954;5.932;2023-02-28T00:44:57;8.15;;;4.07;;
53652;SDS011;39553;52.954;5.932;2023-02-28T00:47:22;11.68;;;4.13;;
53652;SDS011;39553;52.954;5.932;2023-02-28T00:49:48;7.20;;;4.13;;
53652;SDS011;39553;52.954;5.932;2023-02-28T00:52:14;7.72;;;4.28;;
53652;SDS011;39553;52.954;5.932;2023-02-28T00:54:40;9.98;;;4.32;;
53652;SDS011;39553;52.954;5.932;2023-02-28T00:57:05;9.00;;;4.38;;
53652;SDS011;39553;52.954;5.932;2023-02-28T00:59:31;9.73;;;4.38;;
53652;SDS011;39553;52.954;5.932;2023-02-28T01:01:56;12.30;;;4.07;;
53652;SDS011;39553;52.954;5.932;2023-02-28T01:04:22;16.83;;;4.53;;
53652;SDS011;39553;52.954;5.932;2023-02-28T01:06:48;10.13;;;4.22;;
53652;SDS011;39553;52.954;5.932;2023-02-28T01:09:14;9.77;;;4.38;;
53652;SDS011;39553;52.954;5.932;2023-02-28T01:11:39;13.23;;;3.80;;
53652;SDS011;39553;52.954;5.932;2023-02-28T01:14:09;6.30;;;4.35;;
53652;SDS011;39553;52.954;5.932;2023-02-28T01:16:38;9.18;;;3.85;;
53652;SDS011;39553;52.954;5.932;2023-02-28T01:19:03;11.40;;;4.47;;
53652;SDS011;39553;52.954;5.932;2023-02-28T01:21:29;8.95;;;3.80;;
53652;SDS011;39553;52.954;5.932;2023-02-28T01:23:56;9.52;;;4.10;;
53652;SDS011;39553;52.954;5.932;2023-02-28T01:26:22;9.68;;;3.60;;
53652;SDS011;39553;52.954;5.932;2023-02-28T01:28:49;7.03;;;3.80;;
53652;SDS011;39553;52.954;5.932;2023-02-28T01:31:19;8.15;;;3.78;;
53652;SDS011;39553;52.954;5.932;2023-02-28T01:33:46;7.65;;;3.50;;
53652;SDS011;39553;52.954;5.932;2023-02-28T01:36:14;12.13;;;4.50;;
53652;SDS011;39553;52.954;5.932;2023-02-28T01:38:41;10.05;;;3.95;;
53652;SDS011;39553;52.954;5.932;2023-02-28T01:41:09;8.20;;;3.75;;
53652;SDS011;39553;52.954;5.932;2023-02-28T01:43:58;9.13;;;4.22;;
53652;SDS011;39553;52.954;5.932;2023-02-28T01:46:32;10.45;;;4.20;;
53652;SDS011;39553;52.954;5.932;2023-02-28T01:49:11;7.57;;;3.60;;
53652;SDS011;39553;52.954;5.932;2023-02-28T01:51:50;7.55;;;4.03;;
53652;SDS011;39553;52.954;5.932;2023-02-28T01:54:26;7.05;;;3.85;;
53652;SDS011;39553;52.954;5.932;2023-02-28T01:57:04;9.35;;;3.78;;
53652;SDS011;39553;52.954;5.932;2023-02-28T01:59:42;10.40;;;4.85;;
53652;SDS011;39553;52.954;5.932;2023-02-28T02:02:15;6.95;;;3.72;;
53652;SDS011;39553;52.954;5.932;2023-02-28T02:04:50;11.23;;;4.80;;
53652;SDS011;39553;52.954;5.932;2023-02-28T02:07:26;10.75;;;3.42;;
53652;SDS011;39553;52.954;5.932;2023-02-28T02:10:10;10.48;;;4.13;;
53652;SDS011;39553;52.954;5.932;2023-02-28T02:18:33;10.10;;;3.70;;
53652;SDS011;39553;52.954;5.932;2023-02-28T02:23:51;5.07;;;3.17;;
53652;SDS011;39553;52.954;5.932;2023-02-28T02:34:26;10.82;;;4.25;;
53652;SDS011;39553;52.954;5.932;2023-02-28T02:37:13;12.95;;;5.25;;
53652;SDS011;39553;52.954;5.932;2023-02-28T02:39:52;5.70;;;3.60;;
53652;SDS011;39553;52.954;5.932;2023-02-28T02:45:19;12.02;;;3.83;;
53652;SDS011;39553;52.954;5.932;2023-02-28T02:47:53;11.00;;;5.38;;
53652;SDS011;39553;52.954;5.932;2023-02-28T02:50:26;8.98;;;4.78;;
53652;SDS011;39553;52.954;5.932;2023-02-28T02:52:59;15.98;;;4.38;;
53652;SDS011;39553;52.954;5.932;2023-02-28T02:55:27;11.40;;;4.38;;
53652;SDS011;39553;52.954;5.932;2023-02-28T02:57:58;14.43;;;4.93;;
53652;SDS011;39553;52.954;5.932;2023-02-28T03:00:30;8.68;;;4.82;;
53652;SDS011;39553;52.954;5.932;2023-02-28T03:03:01;14.60;;;5.10;;
53652;SDS011;39553;52.954;5.932;2023-02-28T03:05:33;10.27;;;4.22;;
53652;SDS011;39553;52.954;5.932;2023-02-28T03:08:04;16.08;;;4.82;;
53652;SDS011;39553;52.954;5.932;2023-02-28T03:10:36;9.88;;;4.53;;
53652;SDS011;39553;52.954;5.932;2023-02-28T03:13:08;11.32;;;4.55;;
53652;SDS011;39553;52.954;5.932;2023-02-28T03:16:16;10.95;;;5.50;;
53652;SDS011;39553;52.954;5.932;2023-02-28T03:19:16;15.80;;;5.63;;
53652;SDS011;39553;52.954;5.932;2023-02-28T03:24:45;17.23;;;6.03;;
53652;SDS011;39553;52.954;5.932;2023-02-28T03:27:27;14.48;;;5.38;;
53652;SDS011;39553;52.954;5.932;2023-02-28T03:30:03;13.00;;;5.78;;
53652;SDS011;39553;52.954;5.932;2023-02-28T03:33:17;12.35;;;5.38;;
53652;SDS011;39553;52.954;5.932;2023-02-28T03:36:09;9.90;;;5.07;;
53652;SDS011;39553;52.954;5.932;2023-02-28T03:38:36;14.60;;;5.88;;
53652;SDS011;39553;52.954;5.932;2023-02-28T03:41:12;16.25;;;6.15;;
53652;SDS011;39553;52.954;5.932;2023-02-28T03:43:44;13.57;;;6.13;;
53652;SDS011;39553;52.954;5.932;2023-02-28T03:46:14;16.13;;;5.80;;
53652;SDS011;39553;52.954;5.932;2023-02-28T03:48:51;10.25;;;5.30;;
53652;SDS011;39553;52.954;5.932;2023-02-28T03:51:22;12.98;;;5.85;;
53652;SDS011;39553;52.954;5.932;2023-02-28T03:53:52;10.43;;;5.68;;
53652;SDS011;39553;52.954;5.932;2023-02-28T03:56:23;12.80;;;5.90;;
53652;SDS011;39553;52.954;5.932;2023-02-28T03:59:14;12.02;;;6.40;;
53652;SDS011;39553;52.954;5.932;2023-02-28T04:01:46;11.45;;;5.97;;
53652;SDS011;39553;52.954;5.932;2023-02-28T04:04:16;9.85;;;5.57;;
53652;SDS011;39553;52.954;5.932;2023-02-28T04:06:43;13.35;;;6.13;;
53652;SDS011;39553;52.954;5.932;2023-02-28T04:09:10;12.25;;;6.57;;
53652;SDS011;39553;52.954;5.932;2023-02-28T04:11:51;13.98;;;6.85;;
53652;SDS011;39553;52.954;5.932;2023-02-28T04:14:18;13.55;;;7.07;;
53652;SDS011;39553;52.954;5.932;2023-02-28T04:16:44;14.43;;;6.57;;
53652;SDS011;39553;52.954;5.932;2023-02-28T04:19:13;13.68;;;6.30;;
53652;SDS011;39553;52.954;5.932;2023-02-28T04:24:11;11.93;;;6.80;;
53652;SDS011;39553;52.954;5.932;2023-02-28T04:26:49;13.48;;;7.47;;
53652;SDS011;39553;52.954;5.932;2023-02-28T04:29:25;12.68;;;6.68;;
53652;SDS011;39553;52.954;5.932;2023-02-28T04:31:52;17.60;;;8.00;;
53652;SDS011;39553;52.954;5.932;2023-02-28T04:34:19;15.18;;;7.03;;
53652;SDS011;39553;52.954;5.932;2023-02-28T04:36:49;14.82;;;6.53;;
53652;SDS011;39553;52.954;5.932;2023-02-28T04:39:16;15.75;;;6.82;;
53652;SDS011;39553;52.954;5.932;2023-02-28T04:41:43;10.40;;;6.32;;
53652;SDS011;39553;52.954;5.932;2023-02-28T04:44:10;11.57;;;6.47;;
53652;SDS011;39553;52.954;5.932;2023-02-28T04:46:35;12.38;;;6.60;;
53652;SDS011;39553;52.954;5.932;2023-02-28T04:49:02;10.75;;;6.20;;
53652;SDS011;39553;52.954;5.932;2023-02-28T04:51:28;9.38;;;5.40;;
53652;SDS011;39553;52.954;5.932;2023-02-28T04:53:54;10.60;;;6.00;;
53652;SDS011;39553;52.954;5.932;2023-02-28T04:56:20;8.10;;;5.10;;
53652;SDS011;39553;52.954;5.932;2023-02-28T04:58:47;11.80;;;5.57;;
53652;SDS011;39553;52.954;5.932;2023-02-28T05:01:17;11.52;;;6.10;;
53652;SDS011;39553;52.954;5.932;2023-02-28T05:03:56;9.82;;;5.53;;
53652;SDS011;39553;52.954;5.932;2023-02-28T05:06:23;8.35;;;5.30;;
53652;SDS011;39553;52.954;5.932;2023-02-28T05:08:52;9.35;;;5.75;;
53652;SDS011;39553;52.954;5.932;2023-02-28T05:11:23;12.18;;;6.20;;
53652;SDS011;39553;52.954;5.932;2023-02-28T05:13:50;10.23;;;6.68;;
53652;SDS011;39553;52.954;5.932;2023-02-28T05:16:19;17.45;;;8.25;;
53652;SDS011;39553;52.954;5.932;2023-02-28T05:18:46;19.73;;;8.82;;
53652;SDS011;39553;52.954;5.932;2023-02-28T05:21:23;20.70;;;9.65;;
53652;SDS011;39553;52.954;5.932;2023-02-28T05:24:03;17.10;;;10.35;;
53652;SDS011;39553;52.954;5.932;2023-02-28T05:26:35;25.33;;;11.55;;
53652;SDS011;39553;52.954;5.932;2023-02-28T05:29:04;20.95;;;9.77;;
53652;SDS011;39553;52.954;5.932;2023-02-28T05:31:30;23.25;;;11.20;;
53652;SDS011;39553;52.954;5.932;2023-02-28T05:33:56;21.63;;;11.15;;
53652;SDS011;39553;52.954;5.932;2023-02-28T05:36:22;19.13;;;9.65;;
53652;SDS011;39553;52.954;5.932;2023-02-28T05:38:50;20.58;;;10.65;;
53652;SDS011;39553;52.954;5.932;2023-02-28T05:41:16;18.73;;;9.90;;
53652;SDS011;39553;52.954;5.932;2023-02-28T05:43:47;23.60;;;10.45;;
53652;SDS011;39553;52.954;5.932;2023-02-28T05:46:14;17.92;;;9.45;;
53652;SDS011;39553;52.954;5.932;2023-02-28T05:48:41;21.20;;;10.57;;
53652;SDS011;39553;52.954;5.932;2023-02-28T05:51:09;17.63;;;10.10;;
53652;SDS011;39553;52.954;5.932;2023-02-28T05:53:35;22.83;;;10.98;;
53652;SDS011;39553;52.954;5.932;2023-02-28T05:56:01;20.52;;;11.13;;
53652;SDS011;39553;52.954;5.932;2023-02-28T05:58:28;16.58;;;9.85;;
53652;SDS011;39553;52.954;5.932;2023-02-28T06:00:56;17.77;;;9.77;;
53652;SDS011;39553;52.954;5.932;2023-02-28T06:03:23;20.02;;;11.18;;
53652;SDS011;39553;52.954;5.932;2023-02-28T06:05:52;16.38;;;10.00;;
53652;SDS011;39553;52.954;5.932;2023-02-28T06:08:18;23.70;;;11.77;;
53652;SDS011;39553;52.954;5.932;2023-02-28T06:10:44;26.27;;;12.70;;
53652;SDS011;39553;52.954;5.932;2023-02-28T06:13:10;20.83;;;11.88;;
53652;SDS011;39553;52.954;5.932;2023-02-28T06:15:37;25.17;;;12.48;;
53652;SDS011;39553;52.954;5.932;2023-02-28T06:18:04;23.98;;;12.05;;
53652;SDS011;39553;52.954;5.932;2023-02-28T06:20:29;23.40;;;12.05;;
53652;SDS011;39553;52.954;5.932;2023-02-28T06:22:56;21.80;;;12.70;;
53652;SDS011;39553;52.954;5.932;2023-02-28T06:25:27;20.70;;;12.05;;
53652;SDS011;39553;52.954;5.932;2023-02-28T06:27:53;22.23;;;12.98;;
53652;SDS011;39553;52.954;5.932;2023-02-28T06:30:21;22.27;;;11.32;;
53652;SDS011;39553;52.954;5.932;2023-02-28T06:32:50;22.73;;;12.25;;
53652;SDS011;39553;52.954;5.932;2023-02-28T06:35:17;21.00;;;11.43;;
53652;SDS011;39553;52.954;5.932;2023-02-28T06:37:43;23.25;;;11.88;;
53652;SDS011;39553;52.954;5.932;2023-02-28T06:40:09;20.13;;;11.35;;
53652;SDS011;39553;52.954;5.932;2023-02-28T06:42:35;21.92;;;11.32;;
53652;SDS011;39553;52.954;5.932;2023-02-28T06:45:01;20.00;;;11.25;;
53652;SDS011;39553;52.954;5.932;2023-02-28T06:47:34;20.33;;;11.80;;
53652;SDS011;39553;52.954;5.932;2023-02-28T06:50:00;20.65;;;12.05;;
53652;SDS011;39553;52.954;5.932;2023-02-28T06:52:32;20.95;;;13.05;;
53652;SDS011;39553;52.954;5.932;2023-02-28T06:55:01;21.60;;;11.70;;
53652;SDS011;39553;52.954;5.932;2023-02-28T06:57:32;22.35;;;12.85;;
53652;SDS011;39553;52.954;5.932;2023-02-28T07:00:02;28.60;;;15.15;;
53652;SDS011;39553;52.954;5.932;2023-02-28T07:02:32;32.20;;;15.18;;
53652;SDS011;39553;52.954;5.932;2023-02-28T07:05:00;26.00;;;14.43;;
53652;SDS011;39553;52.954;5.932;2023-02-28T07:07:26;25.17;;;13.40;;
53652;SDS011;39553;52.954;5.932;2023-02-28T07:09:54;23.80;;;13.40;;
53652;SDS011;39553;52.954;5.932;2023-02-28T07:12:19;28.27;;;15.65;;
53652;SDS011;39553;52.954;5.932;2023-02-28T07:14:49;29.42;;;13.25;;
53652;SDS011;39553;52.954;5.932;2023-02-28T07:17:15;26.33;;;14.60;;
53652;SDS011;39553;52.954;5.932;2023-02-28T07:19:40;34.90;;;15.95;;
53652;SDS011;39553;52.954;5.932;2023-02-28T07:22:07;25.40;;;14.93;;
53652;SDS011;39553;52.954;5.932;2023-02-28T07:24:33;27.75;;;15.48;;
53652;SDS011;39553;52.954;5.932;2023-02-28T07:26:59;30.73;;;16.38;;
53652;SDS011;39553;52.954;5.932;2023-02-28T07:29:27;29.65;;;15.75;;
53652;SDS011;39553;52.954;5.932;2023-02-28T07:31:52;34.92;;;16.48;;
53652;SDS011;39553;52.954;5.932;2023-02-28T07:34:21;30.52;;;16.90;;
53652;SDS011;39553;52.954;5.932;2023-02-28T07:36:47;28.60;;;16.50;;
53652;SDS011;39553;52.954;5.932;2023-02-28T07:39:13;28.85;;;16.27;;
53652;SDS011;39553;52.954;5.932;2023-02-28T07:41:39;35.38;;;17.20;;
53652;SDS011;39553;52.954;5.932;2023-02-28T07:44:09;39.63;;;18.13;;
53652;SDS011;39553;52.954;5.932;2023-02-28T07:46:36;41.42;;;19.88;;
53652;SDS011;39553;52.954;5.932;2023-02-28T07:49:03;39.92;;;21.40;;
53652;SDS011;39553;52.954;5.932;2023-02-28T07:51:29;42.60;;;21.48;;
53652;SDS011;39553;52.954;5.932;2023-02-28T07:53:55;46.00;;;21.35;;
53652;SDS011;39553;52.954;5.932;2023-02-28T07:56:22;65.32;;;27.52;;
53652;SDS011;39553;52.954;5.932;2023-02-28T07:58:47;55.58;;;24.77;;
53652;SDS011;39553;52.954;5.932;2023-02-28T08:01:14;78.35;;;31.70;;
53652;SDS011;39553;52.954;5.932;2023-02-28T08:03:40;73.70;;;32.42;;
53652;SDS011;39553;52.954;5.932;2023-02-28T08:06:07;76.53;;;34.47;;
53652;SDS011;39553;52.954;5.932;2023-02-28T08:08:39;61.00;;;27.97;;
53652;SDS011;39553;52.954;5.932;2023-02-28T08:11:07;52.45;;;25.63;;
53652;SDS011;39553;52.954;5.932;2023-02-28T08:13:33;52.55;;;25.92;;
53652;SDS011;39553;52.954;5.932;2023-02-28T08:16:00;50.10;;;23.60;;
53652;SDS011;39553;52.954;5.932;2023-02-28T08:18:27;44.25;;;22.05;;
53652;SDS011;39553;52.954;5.932;2023-02-28T08:20:52;36.22;;;20.20;;
53652;SDS011;39553;52.954;5.932;2023-02-28T08:23:18;71.03;;;28.98;;
53652;SDS011;39553;52.954;5.932;2023-02-28T08:25:44;53.65;;;24.35;;
53652;SDS011;39553;52.954;5.932;2023-02-28T08:28:10;43.10;;;20.20;;
53652;SDS011;39553;52.954;5.932;2023-02-28T08:30:35;32.15;;;16.75;;
53652;SDS011;39553;52.954;5.932;2023-02-28T08:33:01;23.88;;;13.55;;
53652;SDS011;39553;52.954;5.932;2023-02-28T08:35:27;27.88;;;14.73;;
53652;SDS011;39553;52.954;5.932;2023-02-28T08:37:53;26.17;;;14.30;;
53652;SDS011;39553;52.954;5.932;2023-02-28T08:40:18;22.15;;;13.32;;
53652;SDS011;39553;52.954;5.932;2023-02-28T08:42:45;24.65;;;13.00;;
53652;SDS011;39553;52.954;5.932;2023-02-28T08:45:11;21.13;;;12.90;;
53652;SDS011;39553;52.954;5.932;2023-02-28T08:47:38;18.95;;;12.45;;
53652;SDS011;39553;52.954;5.932;2023-02-28T08:50:04;22.17;;;12.93;;
53652;SDS011;39553;52.954;5.932;2023-02-28T08:52:30;23.00;;;12.02;;
53652;SDS011;39553;52.954;5.932;2023-02-28T08:54:56;18.77;;;12.07;;
53652;SDS011;39553;52.954;5.932;2023-02-28T08:57:21;18.55;;;12.68;;
53652;SDS011;39553;52.954;5.932;2023-02-28T08:59:47;20.10;;;12.48;;
53652;SDS011;39553;52.954;5.932;2023-02-28T09:02:13;17.77;;;10.95;;
53652;SDS011;39553;52.954;5.932;2023-02-28T09:04:39;18.10;;;10.90;;
53652;SDS011;39553;52.954;5.932;2023-02-28T09:07:06;16.08;;;10.52;;
53652;SDS011;39553;52.954;5.932;2023-02-28T09:09:34;15.98;;;10.25;;
53652;SDS011;39553;52.954;5.932;2023-02-28T09:11:59;15.10;;;10.85;;
53652;SDS011;39553;52.954;5.932;2023-02-28T09:14:25;20.25;;;11.55;;
53652;SDS011;39553;52.954;5.932;2023-02-28T09:16:51;16.80;;;10.88;;
53652;SDS011;39553;52.954;5.932;2023-02-28T09:19:17;15.57;;;10.40;;
53652;SDS011;39553;52.954;5.932;2023-02-28T09:21:42;15.98;;;11.02;;
53652;SDS011;39553;52.954;5.932;2023-02-28T09:24:08;16.25;;;10.65;;
53652;SDS011;39553;52.954;5.932;2023-02-28T09:26:41;16.38;;;10.60;;
53652;SDS011;39553;52.954;5.932;2023-02-28T09:29:07;20.52;;;12.52;;
53652;SDS011;39553;52.954;5.932;2023-02-28T09:31:33;16.95;;;10.35;;
53652;SDS011;39553;52.954;5.932;2023-02-28T09:33:59;14.93;;;9.52;;
53652;SDS011;39553;52.954;5.932;2023-02-28T09:36:25;14.90;;;10.27;;
53652;SDS011;39553;52.954;5.932;2023-02-28T09:38:51;15.38;;;10.45;;
53652;SDS011;39553;52.954;5.932;2023-02-28T09:41:19;17.90;;;9.73;;
53652;SDS011;39553;52.954;5.932;2023-02-28T09:43:49;17.02;;;10.77;;
53652;SDS011;39553;52.954;5.932;2023-02-28T09:46:33;17.98;;;10.05;;
53652;SDS011;39553;52.954;5.932;2023-02-28T09:49:16;18.25;;;10.98;;
53652;SDS011;39553;52.954;5.932;2023-02-28T09:54:26;34.83;;;19.13;;
53652;SDS011;39553;52.954;5.932;2023-02-28T10:04:57;41.03;;;18.98;;
53652;SDS011;39553;52.954;5.932;2023-02-28T10:10:49;34.30;;;17.88;;
53652;SDS011;39553;52.954;5.932;2023-02-28T10:13:36;30.70;;;17.50;;
53652;SDS011;39553;52.954;5.932;2023-02-28T10:16:31;22.45;;;11.85;;
53652;SDS011;39553;52.954;5.932;2023-02-28T10:19:17;16.27;;;8.32;;
53652;SDS011;39553;52.954;5.932;2023-02-28T10:24:26;23.25;;;12.90;;
53652;SDS011;39553;52.954;5.932;2023-02-28T10:27:01;27.67;;;12.57;;
53652;SDS011;39553;52.954;5.932;2023-02-28T10:29:56;17.90;;;11.23;;
53652;SDS011;39553;52.954;5.932;2023-02-28T10:32:32;16.88;;;9.80;;
53652;SDS011;39553;52.954;5.932;2023-02-28T10:35:21;14.77;;;8.40;;
53652;SDS011;39553;52.954;5.932;2023-02-28T10:37:48;11.05;;;6.65;;
53652;SDS011;39553;52.954;5.932;2023-02-28T10:42:56;6.95;;;3.88;;
53652;SDS011;39553;52.954;5.932;2023-02-28T10:45:23;4.45;;;3.55;;
53652;SDS011;39553;52.954;5.932;2023-02-28T10:47:56;9.00;;;3.67;;
53652;SDS011;39553;52.954;5.932;2023-02-28T10:50:32;6.63;;;3.47;;
53652;SDS011;39553;52.954;5.932;2023-02-28T10:55:37;6.07;;;4.00;;
53652;SDS011;39553;52.954;5.932;2023-02-28T10:58:12;6.22;;;3.75;;
53652;SDS011;39553;52.954;5.932;2023-02-28T11:00:53;5.25;;;3.88;;
53652;SDS011;39553;52.954;5.932;2023-02-28T11:03:37;5.43;;;3.63;;
53652;SDS011;39553;52.954;5.932;2023-02-28T11:06:08;5.88;;;3.47;;
53652;SDS011;39553;52.954;5.932;2023-02-28T11:08:48;9.20;;;3.90;;
53652;SDS011;39553;52.954;5.932;2023-02-28T11:11:16;6.57;;;3.97;;
53652;SDS011;39553;52.954;5.932;2023-02-28T11:13:43;9.18;;;4.88;;
53652;SDS011;39553;52.954;5.932;2023-02-28T11:16:15;6.65;;;4.80;;
53652;SDS011;39553;52.954;5.932;2023-02-28T11:18:49;7.82;;;4.68;;
53652;SDS011;39553;52.954;5.932;2023-02-28T11:21:29;8.95;;;4.22;;
53652;SDS011;39553;52.954;5.932;2023-02-28T11:27:04;8.77;;;4.68;;
53652;SDS011;39553;52.954;5.932;2023-02-28T11:29:30;9.38;;;5.10;;
53652;SDS011;39553;52.954;5.932;2023-02-28T11:34:53;9.00;;;4.95;;
53652;SDS011;39553;52.954;5.932;2023-02-28T11:37:26;9.38;;;5.65;;
53652;SDS011;39553;52.954;5.932;2023-02-28T11:40:02;11.02;;;5.28;;
53652;SDS011;39553;52.954;5.932;2023-02-28T11:45:36;6.40;;;4.30;;
53652;SDS011;39553;52.954;5.932;2023-02-28T11:48:26;11.20;;;4.03;;
53652;SDS011;39553;52.954;5.932;2023-02-28T11:51:05;6.72;;;3.92;;
53652;SDS011;39553;52.954;5.932;2023-02-28T11:56:50;7.03;;;3.28;;
53652;SDS011;39553;52.954;5.932;2023-02-28T11:59:29;4.53;;;3.25;;
53652;SDS011;39553;52.954;5.932;2023-02-28T12:15:45;6.10;;;3.45;;
53652;SDS011;39553;52.954;5.932;2023-02-28T12:18:31;5.95;;;3.58;;
53652;SDS011;39553;52.954;5.932;2023-02-28T12:21:22;5.55;;;3.45;;
53652;SDS011;39553;52.954;5.932;2023-02-28T12:26:40;4.97;;;2.88;;
53652;SDS011;39553;52.954;5.932;2023-02-28T12:29:13;5.25;;;2.92;;
53652;SDS011;39553;52.954;5.932;2023-02-28T12:32:12;3.80;;;2.88;;
53652;SDS011;39553;52.954;5.932;2023-02-28T12:34:49;4.43;;;2.90;;
53652;SDS011;39553;52.954;5.932;2023-02-28T12:37:24;4.47;;;2.85;;
53652;SDS011;39553;52.954;5.932;2023-02-28T12:40:03;4.30;;;2.75;;
53652;SDS011;39553;52.954;5.932;2023-02-28T12:42:40;4.47;;;3.13;;
53652;SDS011;39553;52.954;5.932;2023-02-28T12:47:42;4.35;;;2.47;;
53652;SDS011;39553;52.954;5.932;2023-02-28T12:50:11;4.20;;;2.78;;
53652;SDS011;39553;52.954;5.932;2023-02-28T12:52:40;4.55;;;2.60;;
53652;SDS011;39553;52.954;5.932;2023-02-28T12:57:58;5.03;;;2.33;;
53652;SDS011;39553;52.954;5.932;2023-02-28T13:00:43;3.58;;;2.30;;
53652;SDS011;39553;52.954;5.932;2023-02-28T13:04:04;3.67;;;2.25;;
53652;SDS011;39553;52.954;5.932;2023-02-28T13:09:56;3.80;;;2.50;;
53652;SDS011;39553;52.954;5.932;2023-02-28T13:12:24;6.68;;;2.75;;
53652;SDS011;39553;52.954;5.932;2023-02-28T13:15:00;10.98;;;2.85;;
53652;SDS011;39553;52.954;5.932;2023-02-28T13:17:52;5.35;;;2.50;;
53652;SDS011;39553;52.954;5.932;2023-02-28T13:20:21;4.97;;;3.10;;
53652;SDS011;39553;52.954;5.932;2023-02-28T13:22:56;4.07;;;2.75;;
53652;SDS011;39553;52.954;5.932;2023-02-28T13:27:57;4.88;;;2.90;;
53652;SDS011;39553;52.954;5.932;2023-02-28T13:34:28;3.70;;;2.80;;
53652;SDS011;39553;52.954;5.932;2023-02-28T13:36:25;5.05;;;2.42;;
53652;SDS011;39553;52.954;5.932;2023-02-28T13:39:03;6.05;;;4.10;;
53652;SDS011;39553;52.954;5.932;2023-02-28T13:41:49;4.18;;;3.15;;
53652;SDS011;39553;52.954;5.932;2023-02-28T13:44:16;4.03;;;3.05;;
53652;SDS011;39553;52.954;5.932;2023-02-28T13:52:18;5.68;;;3.17;;
53652;SDS011;39553;52.954;5.932;2023-02-28T13:54:57;4.35;;;3.03;;
53652;SDS011;39553;52.954;5.932;2023-02-28T13:57:51;4.75;;;3.33;;
53652;SDS011;39553;52.954;5.932;2023-02-28T14:00:29;5.57;;;3.65;;
53652;SDS011;39553;52.954;5.932;2023-02-28T14:08:59;4.70;;;3.08;;
53652;SDS011;39553;52.954;5.932;2023-02-28T14:11:44;5.35;;;3.03;;
53652;SDS011;39553;52.954;5.932;2023-02-28T14:17:05;5.28;;;3.53;;
53652;SDS011;39553;52.954;5.932;2023-02-28T14:19:36;6.25;;;3.80;;
53652;SDS011;39553;52.954;5.932;2023-02-28T14:24:42;6.43;;;3.30;;
53652;SDS011;39553;52.954;5.932;2023-02-28T14:36:36;3.90;;;2.75;;
53652;SDS011;39553;52.954;5.932;2023-02-28T14:39:10;4.60;;;3.10;;
53652;SDS011;39553;52.954;5.932;2023-02-28T14:41:42;6.57;;;3.72;;
53652;SDS011;39553;52.954;5.932;2023-02-28T14:46:43;4.53;;;3.30;;
53652;SDS011;39553;52.954;5.932;2023-02-28T14:54:36;6.25;;;3.30;;
53652;SDS011;39553;52.954;5.932;2023-02-28T14:57:03;12.82;;;4.75;;
53652;SDS011;39553;52.954;5.932;2023-02-28T14:59:30;5.95;;;3.47;;
53652;SDS011;39553;52.954;5.932;2023-02-28T15:04:54;7.43;;;3.58;;
53652;SDS011;39553;52.954;5.932;2023-02-28T15:07:46;5.25;;;3.50;;
53652;SDS011;39553;52.954;5.932;2023-02-28T15:10:18;4.38;;;3.00;;
53652;SDS011;39553;52.954;5.932;2023-02-28T15:12:51;5.53;;;3.67;;
53652;SDS011;39553;52.954;5.932;2023-02-28T15:15:21;3.38;;;2.83;;
53652;SDS011;39553;52.954;5.932;2023-02-28T15:17:52;4.00;;;2.92;;
53652;SDS011;39553;52.954;5.932;2023-02-28T15:20:21;4.75;;;3.22;;
53652;SDS011;39553;52.954;5.932;2023-02-28T15:22:48;5.15;;;3.38;;
53652;SDS011;39553;52.954;5.932;2023-02-28T15:25:18;5.78;;;3.63;;
53652;SDS011;39553;52.954;5.932;2023-02-28T15:27:47;4.68;;;3.20;;
53652;SDS011;39553;52.954;5.932;2023-02-28T15:30:17;4.63;;;3.13;;
53652;SDS011;39553;52.954;5.932;2023-02-28T15:32:44;6.18;;;3.50;;
53652;SDS011;39553;52.954;5.932;2023-02-28T15:37:58;6.18;;;3.28;;
53652;SDS011;39553;52.954;5.932;2023-02-28T15:40:43;5.00;;;3.67;;
53652;SDS011;39553;52.954;5.932;2023-02-28T15:43:14;5.20;;;3.50;;
53652;SDS011;39553;52.954;5.932;2023-02-28T15:45:46;5.72;;;3.80;;
53652;SDS011;39553;52.954;5.932;2023-02-28T15:48:18;4.45;;;3.53;;
53652;SDS011;39553;52.954;5.932;2023-02-28T15:50:47;6.13;;;3.60;;
53652;SDS011;39553;52.954;5.932;2023-02-28T15:53:29;5.28;;;3.40;;
53652;SDS011;39553;52.954;5.932;2023-02-28T15:56:02;6.38;;;3.58;;
53652;SDS011;39553;52.954;5.932;2023-02-28T15:58:34;6.82;;;3.95;;
53652;SDS011;39553;52.954;5.932;2023-02-28T16:01:35;5.93;;;3.75;;
53652;SDS011;39553;52.954;5.932;2023-02-28T16:04:03;5.32;;;3.38;;
53652;SDS011;39553;52.954;5.932;2023-02-28T16:09:13;8.43;;;3.78;;
53652;SDS011;39553;52.954;5.932;2023-02-28T16:11:50;4.70;;;3.63;;
53652;SDS011;39553;52.954;5.932;2023-02-28T16:14:20;5.35;;;4.07;;
53652;SDS011;39553;52.954;5.932;2023-02-28T16:16:50;5.40;;;3.58;;
53652;SDS011;39553;52.954;5.932;2023-02-28T16:19:21;5.68;;;3.88;;
53652;SDS011;39553;52.954;5.932;2023-02-28T16:21:48;5.68;;;4.05;;
53652;SDS011;39553;52.954;5.932;2023-02-28T16:24:14;6.70;;;4.22;;
53652;SDS011;39553;52.954;5.932;2023-02-28T16:26:40;7.80;;;4.00;;
53652;SDS011;39553;52.954;5.932;2023-02-28T16:29:13;6.65;;;4.00;;
53652;SDS011;39553;52.954;5.932;2023-02-28T16:31:45;6.53;;;4.13;;
53652;SDS011;39553;52.954;5.932;2023-02-28T16:34:10;5.47;;;3.60;;
53652;SDS011;39553;52.954;5.932;2023-02-28T16:36:36;8.45;;;3.55;;
53652;SDS011;39553;52.954;5.932;2023-02-28T16:39:02;6.45;;;3.88;;
53652;SDS011;39553;52.954;5.932;2023-02-28T16:41:28;6.57;;;5.28;;
53652;SDS011;39553;52.954;5.932;2023-02-28T16:43:58;8.27;;;4.95;;
53652;SDS011;39553;52.954;5.932;2023-02-28T16:46:27;6.38;;;4.43;;
53652;SDS011;39553;52.954;5.932;2023-02-28T16:48:59;5.90;;;4.15;;
53652;SDS011;39553;52.954;5.932;2023-02-28T16:51:28;8.05;;;4.90;;
53652;SDS011;39553;52.954;5.932;2023-02-28T16:53:55;6.80;;;4.53;;
53652;SDS011;39553;52.954;5.932;2023-02-28T16:56:24;6.63;;;4.50;;
53652;SDS011;39553;52.954;5.932;2023-02-28T16:58:50;6.80;;;4.90;;
53652;SDS011;39553;52.954;5.932;2023-02-28T17:01:17;9.00;;;4.65;;
53652;SDS011;39553;52.954;5.932;2023-02-28T17:03:47;7.30;;;4.28;;
53652;SDS011;39553;52.954;5.932;2023-02-28T17:06:23;6.80;;;4.60;;
53652;SDS011;39553;52.954;5.932;2023-02-28T17:08:53;7.53;;;5.10;;
53652;SDS011;39553;52.954;5.932;2023-02-28T17:11:19;9.13;;;4.93;;